sensor_id;sensor_type;location;lat;lon;timestamp;P1;durP1;ratioP1;P2;durP2;ratioP2
6290;SDS011;3178;48.730;8.990;2023-04-24T00:00:34;5.57;;;1.50;;
6290;SDS011;3178;48.730;8.990;2023-04-24T00:03:00;2.67;;;1.60;;
6290;SDS011;3178;48.730;8.990;2023-04-24T00:05:28;2.10;;;1.20;;
6290;SDS011;3178;48.730;8.990;2023-04-24T00:07:53;2.30;;;1.00;;
6290;SDS011;3178;48.730;8.990;2023-04-24T00:10:20;2.17;;;1.27;;
6290;SDS011;3178;48.730;8.990;2023-04-24T00:12:45;5.37;;;1.40;;
6290;SDS011;3178;48.730;8.990;2023-04-24T00:15:11;5.70;;;1.87;;
6290;SDS011;3178;48.730;8.990;2023-04-24T00:17:37;4.43;;;1.77;;
6290;SDS011;3178;48.730;8.990;2023-04-24T00:20:03;2.73;;;1.20;;
6290;SDS011;3178;48.730;8.990;2023-04-24T00:22:30;3.63;;;1.00;;
6290;SDS011;3178;48.730;8.990;2023-04-24T00:24:56;5.23;;;1.20;;
6290;SDS011;3178;48.730;8.990;2023-04-24T00:27:21;1.90;;;1.07;;
6290;SDS011;3178;48.730;8.990;2023-04-24T00:29:47;4.37;;;1.20;;
6290;SDS011;3178;48.730;8.990;2023-04-24T00:32:13;3.00;;;1.27;;
6290;SDS011;3178;48.730;8.990;2023-04-24T00:34:39;3.40;;;1.07;;
6290;SDS011;3178;48.730;8.990;2023-04-24T00:37:04;3.00;;;1.10;;
6290;SDS011;3178;48.730;8.990;2023-04-24T00:39:30;2.97;;;1.10;;
6290;SDS011;3178;48.730;8.990;2023-04-24T00:41:56;6.63;;;1.40;;
6290;SDS011;3178;48.730;8.990;2023-04-24T00:44:21;2.13;;;1.10;;
6290;SDS011;3178;48.730;8.990;2023-04-24T00:46:47;2.17;;;1.10;;
6290;SDS011;3178;48.730;8.990;2023-04-24T00:49:17;2.70;;;1.10;;
6290;SDS011;3178;48.730;8.990;2023-04-24T00:51:43;2.03;;;1.20;;
6290;SDS011;3178;48.730;8.990;2023-04-24T00:54:11;1.40;;;0.80;;
6290;SDS011;3178;48.730;8.990;2023-04-24T00:56:37;5.23;;;1.20;;
6290;SDS011;3178;48.730;8.990;2023-04-24T00:59:02;2.03;;;0.90;;
6290;SDS011;3178;48.730;8.990;2023-04-24T01:01:29;1.57;;;0.90;;
6290;SDS011;3178;48.730;8.990;2023-04-24T01:03:55;3.83;;;1.20;;
6290;SDS011;3178;48.730;8.990;2023-04-24T01:06:22;3.83;;;1.00;;
6290;SDS011;3178;48.730;8.990;2023-04-24T01:08:48;4.53;;;1.03;;
6290;SDS011;3178;48.730;8.990;2023-04-24T01:11:14;1.60;;;0.70;;
6290;SDS011;3178;48.730;8.990;2023-04-24T01:13:40;7.33;;;1.23;;
6290;SDS011;3178;48.730;8.990;2023-04-24T01:16:05;2.33;;;0.80;;
6290;SDS011;3178;48.730;8.990;2023-04-24T01:18:31;2.07;;;0.90;;
6290;SDS011;3178;48.730;8.990;2023-04-24T01:20:57;3.17;;;1.00;;
6290;SDS011;3178;48.730;8.990;2023-04-24T01:23:24;1.93;;;1.00;;
6290;SDS011;3178;48.730;8.990;2023-04-24T01:25:50;1.40;;;1.07;;
6290;SDS011;3178;48.730;8.990;2023-04-24T01:28:16;1.60;;;0.90;;
6290;SDS011;3178;48.730;8.990;2023-04-24T01:30:43;1.43;;;0.93;;
6290;SDS011;3178;48.730;8.990;2023-04-24T01:33:08;5.60;;;1.07;;
6290;SDS011;3178;48.730;8.990;2023-04-24T01:35:35;1.60;;;1.20;;
6290;SDS011;3178;48.730;8.990;2023-04-24T01:38:02;1.97;;;1.17;;
6290;SDS011;3178;48.730;8.990;2023-04-24T01:40:28;2.03;;;1.03;;
6290;SDS011;3178;48.730;8.990;2023-04-24T01:42:53;1.93;;;1.10;;
6290;SDS011;3178;48.730;8.990;2023-04-24T01:45:20;1.90;;;1.10;;
6290;SDS011;3178;48.730;8.990;2023-04-24T01:47:45;3.00;;;1.20;;
6290;SDS011;3178;48.730;8.990;2023-04-24T01:50:12;2.53;;;1.17;;
6290;SDS011;3178;48.730;8.990;2023-04-24T01:52:38;2.40;;;1.30;;
6290;SDS011;3178;48.730;8.990;2023-04-24T01:55:04;1.87;;;0.90;;
6290;SDS011;3178;48.730;8.990;2023-04-24T01:57:30;2.03;;;1.10;;
6290;SDS011;3178;48.730;8.990;2023-04-24T01:59:56;1.67;;;1.00;;
6290;SDS011;3178;48.730;8.990;2023-04-24T02:02:22;1.53;;;0.97;;
6290;SDS011;3178;48.730;8.990;2023-04-24T02:04:56;1.63;;;1.20;;
6290;SDS011;3178;48.730;8.990;2023-04-24T02:07:22;3.80;;;1.30;;
6290;SDS011;3178;48.730;8.990;2023-04-24T02:09:47;8.10;;;1.40;;
6290;SDS011;3178;48.730;8.990;2023-04-24T02:12:13;2.60;;;1.03;;
6290;SDS011;3178;48.730;8.990;2023-04-24T02:14:39;2.00;;;1.10;;
6290;SDS011;3178;48.730;8.990;2023-04-24T02:17:05;3.10;;;1.37;;
6290;SDS011;3178;48.730;8.990;2023-04-24T02:19:31;1.40;;;0.80;;
6290;SDS011;3178;48.730;8.990;2023-04-24T02:21:57;3.17;;;1.40;;
6290;SDS011;3178;48.730;8.990;2023-04-24T02:24:22;6.07;;;1.33;;
6290;SDS011;3178;48.730;8.990;2023-04-24T02:26:48;2.77;;;1.33;;
6290;SDS011;3178;48.730;8.990;2023-04-24T02:29:13;10.70;;;1.20;;
6290;SDS011;3178;48.730;8.990;2023-04-24T02:31:39;1.40;;;1.03;;
6290;SDS011;3178;48.730;8.990;2023-04-24T02:34:05;2.30;;;1.00;;
6290;SDS011;3178;48.730;8.990;2023-04-24T02:36:30;5.17;;;1.13;;
6290;SDS011;3178;48.730;8.990;2023-04-24T02:38:56;2.90;;;1.27;;
6290;SDS011;3178;48.730;8.990;2023-04-24T02:41:22;1.30;;;0.70;;
6290;SDS011;3178;48.730;8.990;2023-04-24T02:43:47;3.20;;;1.07;;
6290;SDS011;3178;48.730;8.990;2023-04-24T02:46:13;3.63;;;1.20;;
6290;SDS011;3178;48.730;8.990;2023-04-24T02:48:38;3.83;;;1.30;;
6290;SDS011;3178;48.730;8.990;2023-04-24T02:51:04;4.40;;;1.37;;
6290;SDS011;3178;48.730;8.990;2023-04-24T02:53:30;5.53;;;1.40;;
6290;SDS011;3178;48.730;8.990;2023-04-24T02:55:55;2.37;;;1.00;;
6290;SDS011;3178;48.730;8.990;2023-04-24T02:58:21;1.37;;;1.03;;
6290;SDS011;3178;48.730;8.990;2023-04-24T03:00:47;1.90;;;0.93;;
6290;SDS011;3178;48.730;8.990;2023-04-24T03:03:13;3.30;;;1.40;;
6290;SDS011;3178;48.730;8.990;2023-04-24T03:05:40;3.63;;;1.23;;
6290;SDS011;3178;48.730;8.990;2023-04-24T03:08:05;2.87;;;1.20;;
6290;SDS011;3178;48.730;8.990;2023-04-24T03:10:31;3.27;;;1.00;;
6290;SDS011;3178;48.730;8.990;2023-04-24T03:12:57;5.67;;;1.63;;
6290;SDS011;3178;48.730;8.990;2023-04-24T03:15:22;2.53;;;1.37;;
6290;SDS011;3178;48.730;8.990;2023-04-24T03:17:48;3.57;;;1.33;;
6290;SDS011;3178;48.730;8.990;2023-04-24T03:20:13;1.83;;;0.90;;
6290;SDS011;3178;48.730;8.990;2023-04-24T03:22:39;2.70;;;1.30;;
6290;SDS011;3178;48.730;8.990;2023-04-24T03:25:05;2.57;;;1.20;;
6290;SDS011;3178;48.730;8.990;2023-04-24T03:27:31;3.33;;;1.67;;
6290;SDS011;3178;48.730;8.990;2023-04-24T03:29:56;2.57;;;1.20;;
6290;SDS011;3178;48.730;8.990;2023-04-24T03:32:23;2.13;;;1.00;;
6290;SDS011;3178;48.730;8.990;2023-04-24T03:34:49;2.67;;;1.50;;
6290;SDS011;3178;48.730;8.990;2023-04-24T03:37:18;4.10;;;1.30;;
6290;SDS011;3178;48.730;8.990;2023-04-24T03:39:43;3.00;;;1.27;;
6290;SDS011;3178;48.730;8.990;2023-04-24T03:42:09;4.73;;;1.37;;
6290;SDS011;3178;48.730;8.990;2023-04-24T03:44:35;2.33;;;1.20;;
6290;SDS011;3178;48.730;8.990;2023-04-24T03:47:01;2.30;;;1.50;;
6290;SDS011;3178;48.730;8.990;2023-04-24T03:49:26;3.93;;;1.10;;
6290;SDS011;3178;48.730;8.990;2023-04-24T03:51:52;5.00;;;1.23;;
6290;SDS011;3178;48.730;8.990;2023-04-24T03:54:18;1.20;;;0.90;;
6290;SDS011;3178;48.730;8.990;2023-04-24T03:56:44;4.20;;;1.40;;
6290;SDS011;3178;48.730;8.990;2023-04-24T03:59:09;2.73;;;1.00;;
6290;SDS011;3178;48.730;8.990;2023-04-24T04:01:35;9.13;;;1.17;;
6290;SDS011;3178;48.730;8.990;2023-04-24T04:04:02;1.83;;;0.90;;
6290;SDS011;3178;48.730;8.990;2023-04-24T04:06:28;2.70;;;0.90;;
6290;SDS011;3178;48.730;8.990;2023-04-24T04:08:55;2.27;;;1.20;;
6290;SDS011;3178;48.730;8.990;2023-04-24T04:11:21;1.33;;;1.00;;
6290;SDS011;3178;48.730;8.990;2023-04-24T04:13:47;4.90;;;1.20;;
6290;SDS011;3178;48.730;8.990;2023-04-24T04:16:13;3.07;;;1.17;;
6290;SDS011;3178;48.730;8.990;2023-04-24T04:18:38;4.23;;;1.27;;
6290;SDS011;3178;48.730;8.990;2023-04-24T04:21:04;2.90;;;1.10;;
6290;SDS011;3178;48.730;8.990;2023-04-24T04:23:29;2.33;;;1.63;;
6290;SDS011;3178;48.730;8.990;2023-04-24T04:25:55;2.10;;;1.50;;
6290;SDS011;3178;48.730;8.990;2023-04-24T04:28:20;2.70;;;2.00;;
6290;SDS011;3178;48.730;8.990;2023-04-24T04:30:46;4.20;;;2.73;;
6290;SDS011;3178;48.730;8.990;2023-04-24T04:33:12;2.90;;;2.20;;
6290;SDS011;3178;48.730;8.990;2023-04-24T04:35:38;4.13;;;2.17;;
6290;SDS011;3178;48.730;8.990;2023-04-24T04:38:03;2.60;;;2.13;;
6290;SDS011;3178;48.730;8.990;2023-04-24T04:40:29;4.27;;;3.30;;
6290;SDS011;3178;48.730;8.990;2023-04-24T04:42:55;8.00;;;3.70;;
6290;SDS011;3178;48.730;8.990;2023-04-24T04:45:20;4.77;;;2.80;;
6290;SDS011;3178;48.730;8.990;2023-04-24T04:47:46;3.17;;;2.77;;
6290;SDS011;3178;48.730;8.990;2023-04-24T04:50:12;3.43;;;2.17;;
6290;SDS011;3178;48.730;8.990;2023-04-24T04:52:38;2.90;;;2.50;;
6290;SDS011;3178;48.730;8.990;2023-04-24T04:55:04;5.73;;;3.00;;
6290;SDS011;3178;48.730;8.990;2023-04-24T04:57:30;6.30;;;3.00;;
6290;SDS011;3178;48.730;8.990;2023-04-24T04:59:56;3.07;;;1.90;;
6290;SDS011;3178;48.730;8.990;2023-04-24T05:02:21;2.50;;;2.00;;
6290;SDS011;3178;48.730;8.990;2023-04-24T05:04:47;2.70;;;2.30;;
6290;SDS011;3178;48.730;8.990;2023-04-24T05:07:12;2.07;;;1.80;;
6290;SDS011;3178;48.730;8.990;2023-04-24T05:09:38;3.53;;;2.40;;
6290;SDS011;3178;48.730;8.990;2023-04-24T05:12:03;5.43;;;2.43;;
6290;SDS011;3178;48.730;8.990;2023-04-24T05:14:29;3.53;;;2.70;;
6290;SDS011;3178;48.730;8.990;2023-04-24T05:16:54;6.03;;;4.07;;
6290;SDS011;3178;48.730;8.990;2023-04-24T05:19:20;6.97;;;5.90;;
6290;SDS011;3178;48.730;8.990;2023-04-24T05:21:46;6.93;;;4.73;;
6290;SDS011;3178;48.730;8.990;2023-04-24T05:24:11;3.50;;;3.20;;
6290;SDS011;3178;48.730;8.990;2023-04-24T05:26:37;2.97;;;2.20;;
6290;SDS011;3178;48.730;8.990;2023-04-24T05:29:02;4.00;;;2.30;;
6290;SDS011;3178;48.730;8.990;2023-04-24T05:31:28;4.27;;;2.13;;
6290;SDS011;3178;48.730;8.990;2023-04-24T05:33:54;2.30;;;1.97;;
6290;SDS011;3178;48.730;8.990;2023-04-24T05:36:20;4.53;;;1.80;;
6290;SDS011;3178;48.730;8.990;2023-04-24T05:38:45;3.73;;;2.40;;
6290;SDS011;3178;48.730;8.990;2023-04-24T05:41:11;5.00;;;2.30;;
6290;SDS011;3178;48.730;8.990;2023-04-24T05:43:36;4.57;;;2.07;;
6290;SDS011;3178;48.730;8.990;2023-04-24T05:46:02;1.83;;;1.50;;
6290;SDS011;3178;48.730;8.990;2023-04-24T05:48:27;2.63;;;1.80;;
6290;SDS011;3178;48.730;8.990;2023-04-24T05:50:53;2.03;;;1.83;;
6290;SDS011;3178;48.730;8.990;2023-04-24T05:53:18;2.40;;;2.07;;
6290;SDS011;3178;48.730;8.990;2023-04-24T05:55:44;3.50;;;2.13;;
6290;SDS011;3178;48.730;8.990;2023-04-24T05:58:10;3.40;;;2.50;;
6290;SDS011;3178;48.730;8.990;2023-04-24T06:00:37;2.13;;;1.70;;
6290;SDS011;3178;48.730;8.990;2023-04-24T06:03:04;3.10;;;2.30;;
6290;SDS011;3178;48.730;8.990;2023-04-24T06:05:31;2.93;;;2.17;;
